Terminal Aerodrome Forecast
Issued by NWS

Home | Current Version | Previous Version | Text Only | Print | Product List | Glossary Off
Versions: 1 2 3 4 5 6 7 8 9 10 11 12 13 14 15 16 17 18 19 20

000
FTUS43 KGRB 211127
TAFRHI
TAF
KRHI 211127Z 2112/2212 00000KT P6SM SCT035 BKN070
      TEMPO 2112/2114 4SM BR BKN030
     FM211400 VRB03KT P6SM VCSH BKN040 OVC090
     FM212200 21005KT P6SM -SHRA VCTS BKN090CB
     FM220100 VRB03KT 5SM SHRA VCTS OVC050CB
     FM220500 00000KT P6SM VCSH FEW005 OVC015
     FM220700 00000KT P6SM OVC004
     FM221100 32005KT 2SM BR SCT005=

USA.gov is the U.S. government's official web portal to all federal, state and local government web resources and services.